Meat Camp, North Carolina
Current Conditions -  °F | °C
As of 6:55 AM on Thursday 23 Oct 2014 (Local Time) from KTNB Reporting Station
Clear Clear  
Wind Chill: 31°   Ceiling: Unl
Heat Index: 40°   Visibility: 10mi
Dew Point: 34°   Wind: 17mph
Humidity: 79%   Direction: 300°WNW
Pressure: 30.11"   Gusts: 23mph
Location:  36.2085°N, 81.6605°W
Report Text: KTNB 231055Z AUTO 30015G20KT 10SM CLR 04/01 A3011 RMK AO2 T00440011
Loading
Personal Weather Stations






























Interactive Weather Map
Tropical Storm Tracking
New forecast layout! Learn more

10-Day Weather Forecast

Advertisements
Track Severe Weather on mobile